Time;durP1;ratioP1;P1;durP2;ratioP2;P2;SDS_P1;SDS_P2;PMS_P1;PMS_P2;Temp;Humidity;BMP_temperature;BMP_pressure;BME280_temperature;BME280_humidity;BME280_pressure;Samples;Min_cycle;Max_cycle;Signal;HPM_P1;HPM_P2
2023/02/02 00:02:44;;;;;;;6.80;4.20;;;;;;;3.43;82.42;98944.89;130721;1267;106786;-75
2023/02/02 00:05:52;;;;;;;9.70;4.90;;;;;;;3.39;82.15;98941.42;130614;1265;106477;-75
2023/02/02 00:08:59;;;;;;;8.80;4.60;;;;;;;3.37;82.21;98932.48;130779;1265;107240;-75
2023/02/02 00:12:05;;;;;;;8.70;4.70;;;;;;;3.28;82.01;98934.67;130506;1267;108630;-74
2023/02/02 00:15:12;;;;;;;10.50;4.90;;;;;;;3.18;82.66;98931.13;130565;1267;107252;-76
2023/02/02 00:18:17;;;;;;;82.10;26.50;;;;;;;3.11;82.37;98934.44;130646;1258;107456;-74
2023/02/02 00:21:23;;;;;;;7.70;4.40;;;;;;;3.13;82.79;98936.30;130643;1259;108361;-75
2023/02/02 00:24:29;;;;;;;16.90;6.10;;;;;;;3.15;82.61;98935.31;130591;1266;107385;-74
2023/02/02 00:27:34;;;;;;;13.40;5.30;;;;;;;3.25;82.63;98934.80;130741;1266;107330;-75
2023/02/02 00:30:41;;;;;;;9.50;4.70;;;;;;;3.29;82.62;98928.23;130706;1257;107561;-75
2023/02/02 00:33:48;;;;;;;10.60;5.50;;;;;;;3.27;82.61;98931.57;130638;1263;107345;-74
2023/02/02 00:36:54;;;;;;;10.00;4.60;;;;;;;3.27;82.91;98932.98;130723;1254;107283;-74
2023/02/02 00:40:01;;;;;;;10.80;4.40;;;;;;;3.22;82.92;98929.05;130619;1266;107519;-75
2023/02/02 00:43:06;;;;;;;6.70;3.90;;;;;;;3.19;83.23;98926.52;130541;1260;107273;-74
2023/02/02 00:46:14;;;;;;;5.80;3.50;;;;;;;3.17;83.32;98928.79;130592;1254;107585;-75
2023/02/02 00:49:20;;;;;;;8.10;3.90;;;;;;;3.20;83.45;98930.17;130572;1257;107365;-72
2023/02/02 00:52:26;;;;;;;8.00;3.90;;;;;;;3.23;83.57;98932.98;130508;1263;107456;-75
2023/02/02 00:55:31;;;;;;;7.60;4.10;;;;;;;3.24;83.68;98929.41;130573;1254;107356;-75
2023/02/02 00:58:37;;;;;;;6.70;3.90;;;;;;;3.25;83.58;98931.21;130690;1258;108005;-74
2023/02/02 01:01:42;;;;;;;7.20;3.40;;;;;;;3.26;83.72;98929.70;130531;1260;107249;-75
2023/02/02 01:04:48;;;;;;;6.70;3.90;;;;;;;3.18;83.99;98931.48;130552;1258;107628;-75
2023/02/02 01:07:53;;;;;;;7.00;3.30;;;;;;;3.16;83.83;98928.55;130566;1266;107201;-75
2023/02/02 01:11:01;;;;;;;4.10;3.10;;;;;;;3.22;84.29;98931.05;130694;1254;107244;-74
2023/02/02 01:14:07;;;;;;;6.50;3.40;;;;;;;3.20;84.23;98926.30;130629;1257;106897;-74
2023/02/02 01:17:13;;;;;;;6.40;3.60;;;;;;;3.18;84.21;98925.39;130640;1267;107547;-74
2023/02/02 01:20:20;;;;;;;4.40;3.00;;;;;;;3.17;84.35;98922.50;130545;1260;107567;-74
2023/02/02 01:23:26;;;;;;;4.50;2.90;;;;;;;3.10;84.71;98930.77;130720;1258;107538;-73
2023/02/02 01:26:32;;;;;;;4.10;2.80;;;;;;;3.05;85.04;98929.67;130515;1257;107452;-75
2023/02/02 01:29:38;;;;;;;6.90;3.60;;;;;;;3.11;84.86;98932.70;130501;1254;107476;-74
2023/02/02 01:32:43;;;;;;;7.60;3.90;;;;;;;3.17;84.59;98932.29;130604;1260;108716;-75
2023/02/02 01:35:50;;;;;;;6.80;3.60;;;;;;;3.21;84.57;98931.09;130548;1258;105802;-75
2023/02/02 01:38:56;;;;;;;8.30;4.00;;;;;;;3.18;84.78;98933.65;130636;1267;107375;-74
2023/02/02 01:42:03;;;;;;;8.80;4.50;;;;;;;3.14;84.60;98933.26;130587;1258;107493;-75
2023/02/02 01:45:24;;;;;;;12.30;4.80;;;;;;;3.15;84.67;98928.62;130614;1258;106452;-73
2023/02/02 01:48:34;;;;;;;8.00;3.70;;;;;;;3.16;84.70;98920.31;130515;1254;107511;-75
2023/02/02 01:51:47;;;;;;;8.90;3.90;;;;;;;3.24;84.75;98922.41;130557;1257;107276;-75
2023/02/02 01:54:56;;;;;;;10.00;4.00;;;;;;;3.29;84.88;98917.86;130761;1257;107523;-72
2023/02/02 01:58:08;;;;;;;11.20;3.90;;;;;;;3.31;84.89;98912.96;130594;1254;107373;-75
2023/02/02 02:01:15;;;;;;;13.00;4.60;;;;;;;3.31;84.77;98909.06;130698;1254;107536;-75
2023/02/02 02:04:22;;;;;;;11.80;4.20;;;;;;;3.30;85.01;98905.69;130642;1255;107485;-75
2023/02/02 02:07:27;;;;;;;9.80;3.40;;;;;;;3.30;85.10;98910.61;130670;1260;107309;-75
2023/02/02 02:10:33;;;;;;;13.90;4.60;;;;;;;3.32;84.99;98907.43;130707;1261;108847;-74
2023/02/02 02:17:22;;;;;;;12.60;4.80;;;;;;;3.39;84.87;98911.33;130587;1260;107568;-75
2023/02/02 02:28:25;;;;;;;11.80;4.10;;;;;;;3.32;85.10;98915.01;130521;1258;107234;-74
2023/02/02 02:31:59;;;;;;;10.30;3.40;;;;;;;3.32;85.09;98913.89;130481;1257;107447;-74
2023/02/02 02:35:12;;;;;;;13.70;4.10;;;;;;;3.36;84.89;98917.21;130398;1267;107557;-74
2023/02/02 02:38:27;;;;;;;16.10;4.90;;;;;;;3.41;84.81;98916.80;130717;1257;107501;-74
2023/02/02 02:41:39;;;;;;;11.00;2.50;;;;;;;3.41;84.85;98921.21;130642;1259;107531;-74
2023/02/02 02:44:45;;;;;;;9.30;2.80;;;;;;;3.41;84.76;98921.38;130637;1257;107555;-72
2023/02/02 02:47:52;;;;;;;11.00;3.10;;;;;;;3.38;84.76;98924.76;130618;1255;106883;-73
2023/02/02 02:51:09;;;;;;;9.30;2.70;;;;;;;3.39;84.95;98926.13;130488;1260;107472;-74
2023/02/02 02:54:18;;;;;;;8.10;2.50;;;;;;;3.41;84.91;98921.73;130531;1257;107539;-75
2023/02/02 02:57:39;;;;;;;8.90;2.90;;;;;;;3.44;84.78;98915.10;130539;1257;107527;-75
2023/02/02 03:00:56;;;;;;;10.70;3.00;;;;;;;3.44;84.95;98917.93;130551;1257;106650;-75
2023/02/02 03:04:11;;;;;;;7.50;2.40;;;;;;;3.44;84.85;98918.63;130733;1254;107258;-73
2023/02/02 03:07:23;;;;;;;7.50;2.30;;;;;;;3.46;84.71;98927.19;130706;1254;107449;-72
2023/02/02 03:10:31;;;;;;;10.50;2.80;;;;;;;3.42;84.71;98931.15;130588;1257;107825;-74
2023/02/02 03:13:37;;;;;;;8.60;2.70;;;;;;;3.42;84.73;98928.64;130499;1257;107411;-74
2023/02/02 03:16:42;;;;;;;10.40;2.90;;;;;;;3.46;84.82;98927.95;130608;1260;107520;-74
2023/02/02 03:19:48;;;;;;;7.20;2.50;;;;;;;3.47;84.59;98929.59;130749;1254;107215;-74
2023/02/02 03:22:53;;;;;;;9.10;2.50;;;;;;;3.50;84.43;98924.53;130569;1259;107216;-75
2023/02/02 03:25:59;;;;;;;9.40;3.00;;;;;;;3.55;84.68;98935.58;130721;1261;108653;-75
2023/02/02 03:29:06;;;;;;;14.40;4.80;;;;;;;3.54;84.51;98936.88;130671;1260;108626;-75
2023/02/02 03:32:11;;;;;;;15.00;5.00;;;;;;;3.47;84.50;98931.66;130768;1257;105825;-74
2023/02/02 03:35:19;;;;;;;158.10;37.60;;;;;;;3.40;84.66;98934.31;130717;1254;107578;-74
2023/02/02 03:38:25;;;;;;;215.40;63.00;;;;;;;3.41;84.63;98931.38;130732;1254;106455;-74
2023/02/02 03:41:30;;;;;;;413.40;130.60;;;;;;;3.45;84.56;98938.23;130598;1257;107503;-74
2023/02/02 03:44:36;;;;;;;386.80;121.70;;;;;;;3.47;84.44;98936.23;130643;1270;107258;-73
2023/02/02 03:47:41;;;;;;;183.00;44.90;;;;;;;3.49;84.20;98933.12;130551;1257;107423;-73
2023/02/02 03:50:47;;;;;;;301.90;79.90;;;;;;;3.46;84.17;98931.09;130495;1257;107692;-75
2023/02/02 03:53:52;;;;;;;401.70;94.90;;;;;;;3.44;84.22;98930.23;130701;1259;107519;-72
2023/02/02 03:56:58;;;;;;;395.30;89.30;;;;;;;3.43;84.24;98938.25;130599;1260;107561;-74
2023/02/02 04:00:05;;;;;;;1052.10;296.60;;;;;;;3.43;84.03;98944.22;130522;1260;107373;-74
2023/02/02 04:03:17;;;;;;;788.20;229.30;;;;;;;3.48;84.05;98946.55;130551;1259;107546;-73
2023/02/02 04:06:23;;;;;;;715.50;240.40;;;;;;;3.52;83.90;98942.70;130615;1256;107537;-73
2023/02/02 04:09:29;;;;;;;633.10;228.20;;;;;;;3.54;84.02;98940.71;130613;1260;107672;-75
2023/02/02 04:12:35;;;;;;;660.60;274.30;;;;;;;3.59;83.89;98941.40;130670;1256;107524;-72
2023/02/02 04:15:41;;;;;;;216.90;78.00;;;;;;;3.59;83.84;98936.92;130695;1257;107420;-72
2023/02/02 04:18:47;;;;;;;32.20;14.20;;;;;;;3.57;84.07;98938.55;130810;1258;108502;-72
2023/02/02 04:21:53;;;;;;;22.50;11.80;;;;;;;3.57;83.92;98934.83;130383;1258;107444;-75
2023/02/02 04:24:59;;;;;;;217.40;94.30;;;;;;;3.59;84.06;98933.94;130490;1255;107743;-73
2023/02/02 04:28:04;;;;;;;361.00;137.60;;;;;;;3.65;83.83;98936.41;130574;1258;107263;-74
2023/02/02 04:31:10;;;;;;;804.70;345.40;;;;;;;3.67;83.79;98930.76;130633;1259;107556;-74
2023/02/02 04:34:16;;;;;;;443.00;163.80;;;;;;;3.72;83.85;98935.38;130521;1256;107534;-74
2023/02/02 04:37:22;;;;;;;108.10;37.60;;;;;;;3.74;83.63;98930.60;130537;1261;108660;-74
2023/02/02 04:40:27;;;;;;;177.40;77.00;;;;;;;3.74;83.57;98926.90;130559;1256;107660;-74
2023/02/02 04:43:35;;;;;;;284.50;154.00;;;;;;;3.72;83.53;98926.02;130488;1258;107409;-74
2023/02/02 04:46:40;;;;;;;92.20;53.60;;;;;;;3.69;83.59;98923.67;130688;1256;107538;-73
2023/02/02 04:49:46;;;;;;;31.20;17.60;;;;;;;3.68;83.68;98917.15;130660;1260;107252;-73
2023/02/02 04:52:51;;;;;;;21.50;13.00;;;;;;;3.70;83.66;98917.11;130612;1257;105785;-73
2023/02/02 04:55:57;;;;;;;103.50;60.40;;;;;;;3.74;83.57;98918.17;130624;1254;106562;-74
2023/02/02 04:59:03;;;;;;;38.70;21.70;;;;;;;3.79;83.60;98919.83;130545;1257;107372;-75
2023/02/02 05:02:08;;;;;;;19.40;6.70;;;;;;;3.80;83.52;98921.85;130564;1260;107529;-74
2023/02/02 05:05:15;;;;;;;14.80;5.50;;;;;;;3.80;83.57;98922.04;130504;1257;108691;-73
2023/02/02 05:08:20;;;;;;;13.60;4.80;;;;;;;3.78;83.44;98915.55;130681;1254;107220;-74
2023/02/02 05:11:26;;;;;;;15.30;5.80;;;;;;;3.76;83.53;98914.77;130744;1257;108691;-74
2023/02/02 05:14:31;;;;;;;12.30;4.70;;;;;;;3.72;83.45;98910.06;130545;1259;105820;-74
2023/02/02 05:17:37;;;;;;;13.60;4.70;;;;;;;3.69;83.63;98912.59;130589;1254;107524;-74
2023/02/02 05:20:42;;;;;;;9.80;4.10;;;;;;;3.70;83.72;98911.25;130717;1254;107338;-74
2023/02/02 05:23:48;;;;;;;10.20;4.50;;;;;;;3.72;83.67;98910.79;130674;1254;105890;-74
2023/02/02 05:26:59;;;;;;;10.60;3.60;;;;;;;3.77;83.75;98907.86;130718;1254;107267;-73
2023/02/02 05:30:06;;;;;;;9.10;3.90;;;;;;;3.81;83.77;98902.90;130736;1254;107348;-73
2023/02/02 05:33:11;;;;;;;9.70;4.00;;;;;;;3.81;83.80;98898.55;130599;1258;107429;-72
2023/02/02 05:36:17;;;;;;;9.50;4.00;;;;;;;3.79;83.85;98896.61;130507;1257;107573;-73
2023/02/02 05:39:22;;;;;;;10.50;3.80;;;;;;;3.76;83.86;98887.89;130545;1257;107442;-74
2023/02/02 05:42:28;;;;;;;6.70;3.40;;;;;;;3.76;83.96;98882.48;130496;1254;107270;-73
2023/02/02 05:45:33;;;;;;;7.10;3.10;;;;;;;3.77;83.92;98881.27;130534;1259;107556;-74
2023/02/02 05:48:39;;;;;;;7.90;3.20;;;;;;;3.80;84.08;98878.55;130592;1260;106689;-74
2023/02/02 05:51:47;;;;;;;9.70;3.70;;;;;;;3.83;83.92;98876.84;130801;1257;107556;-72
2023/02/02 05:54:52;;;;;;;59.60;20.70;;;;;;;3.83;83.85;98866.28;130653;1255;107444;-75
2023/02/02 05:57:58;;;;;;;188.80;53.00;;;;;;;3.84;83.81;98875.37;130530;1257;107494;-73
2023/02/02 06:01:03;;;;;;;391.50;112.40;;;;;;;3.82;83.89;98868.34;130542;1257;107541;-74
2023/02/02 06:04:09;;;;;;;137.30;36.30;;;;;;;3.79;84.05;98869.85;130528;1257;107524;-74
2023/02/02 06:07:15;;;;;;;111.50;28.70;;;;;;;3.76;84.21;98864.88;130479;1254;107562;-74
2023/02/02 06:10:21;;;;;;;268.70;68.50;;;;;;;3.76;84.21;98860.29;130556;1258;107498;-73
2023/02/02 06:13:26;;;;;;;87.00;25.30;;;;;;;3.79;84.25;98857.95;130737;1258;107631;-73
2023/02/02 06:16:32;;;;;;;119.80;33.70;;;;;;;3.80;84.35;98853.59;130523;1257;107384;-73
2023/02/02 06:19:37;;;;;;;50.40;16.10;;;;;;;3.80;84.22;98850.19;130508;1256;107449;-73
2023/02/02 06:22:43;;;;;;;31.70;10.80;;;;;;;3.80;84.23;98850.02;130538;1260;106581;-74
2023/02/02 06:25:48;;;;;;;130.50;35.60;;;;;;;3.75;84.10;98847.67;130771;1258;107578;-73
2023/02/02 06:28:55;;;;;;;102.10;26.70;;;;;;;3.70;84.15;98840.42;130573;1254;107416;-72
2023/02/02 06:32:00;;;;;;;329.60;81.50;;;;;;;3.65;84.17;98844.11;130630;1270;107576;-74
2023/02/02 06:35:08;;;;;;;69.20;20.20;;;;;;;3.62;84.27;98839.39;130460;1257;107538;-73
2023/02/02 06:38:14;;;;;;;401.30;103.70;;;;;;;3.63;84.23;98835.64;130527;1267;107404;-73
2023/02/02 06:41:20;;;;;;;145.20;44.20;;;;;;;3.66;84.19;98830.67;130493;1256;107648;-74
2023/02/02 06:44:26;;;;;;;186.50;72.40;;;;;;;3.68;84.17;98829.70;130525;1257;107490;-74
2023/02/02 06:47:33;;;;;;;101.50;42.30;;;;;;;3.66;83.89;98832.41;130590;1258;106696;-73
2023/02/02 06:50:39;;;;;;;38.60;16.50;;;;;;;3.61;84.06;98826.17;130598;1257;106697;-74
2023/02/02 06:53:47;;;;;;;21.60;8.90;;;;;;;3.57;84.01;98820.16;130678;1256;107519;-75
2023/02/02 06:56:53;;;;;;;19.70;10.70;;;;;;;3.53;83.96;98818.39;130612;1258;107576;-74
2023/02/02 06:59:58;;;;;;;9.20;5.30;;;;;;;3.51;84.19;98821.27;130515;1258;107522;-74
2023/02/02 07:03:04;;;;;;;7.10;3.40;;;;;;;3.47;84.23;98813.88;130572;1256;107249;-73
2023/02/02 07:06:15;;;;;;;7.70;3.40;;;;;;;3.51;84.33;98817.27;130475;1260;107490;-74
2023/02/02 07:09:21;;;;;;;7.10;3.50;;;;;;;3.56;84.26;98812.52;130500;1261;107558;-74
2023/02/02 07:12:27;;;;;;;5.00;2.90;;;;;;;3.60;84.14;98806.94;130569;1256;106232;-74
2023/02/02 07:15:32;;;;;;;7.10;3.60;;;;;;;3.60;84.07;98797.95;130728;1258;107412;-74
2023/02/02 07:18:38;;;;;;;5.10;2.80;;;;;;;3.60;84.00;98797.09;130669;1254;107237;-74
2023/02/02 07:21:44;;;;;;;6.20;2.70;;;;;;;3.60;84.14;98792.49;130580;1258;107627;-73
2023/02/02 07:24:49;;;;;;;5.80;2.90;;;;;;;3.62;84.21;98794.91;130731;1258;107466;-74
2023/02/02 07:27:55;;;;;;;6.30;2.40;;;;;;;3.65;84.09;98791.63;130641;1258;107533;-72
2023/02/02 07:31:01;;;;;;;6.60;2.70;;;;;;;3.72;84.24;98789.10;130646;1258;107505;-72
2023/02/02 07:34:07;;;;;;;6.70;2.80;;;;;;;3.75;84.17;98792.00;130448;1258;107511;-73
2023/02/02 07:37:12;;;;;;;6.40;2.60;;;;;;;3.79;84.04;98790.73;130535;1258;108256;-74
2023/02/02 07:40:18;;;;;;;6.00;2.70;;;;;;;3.78;83.99;98789.04;130718;1261;107549;-73
2023/02/02 07:43:24;;;;;;;6.10;2.80;;;;;;;3.77;83.87;98791.99;130718;1259;108716;-74
2023/02/02 07:46:30;;;;;;;6.90;3.10;;;;;;;3.73;83.85;98797.56;130733;1257;107523;-73
2023/02/02 07:49:35;;;;;;;20.00;8.70;;;;;;;3.69;83.80;98796.55;130685;1257;107508;-73
2023/02/02 07:52:41;;;;;;;86.10;33.70;;;;;;;3.65;83.82;98803.59;130618;1254;107610;-74
2023/02/02 07:55:46;;;;;;;26.30;11.60;;;;;;;3.63;83.80;98801.58;130622;1257;107702;-72
2023/02/02 07:58:53;;;;;;;413.00;135.70;;;;;;;3.62;83.75;98801.83;130528;1259;108690;-74
2023/02/02 08:01:58;;;;;;;433.30;164.50;;;;;;;3.60;83.78;98806.07;130496;1257;106434;-73
2023/02/02 08:05:06;;;;;;;531.90;187.90;;;;;;;3.58;83.63;98809.55;130438;1260;107454;-73
2023/02/02 08:08:11;;;;;;;185.20;56.70;;;;;;;3.54;83.73;98813.06;130428;1256;107590;-74
2023/02/02 08:11:19;;;;;;;190.40;65.70;;;;;;;3.49;83.67;98823.92;130479;1256;108411;-74
2023/02/02 08:14:24;;;;;;;62.00;22.60;;;;;;;3.41;83.63;98824.29;130490;1259;107533;-74
2023/02/02 08:17:30;;;;;;;69.40;32.20;;;;;;;3.33;83.54;98830.02;130517;1259;107321;-73
2023/02/02 08:20:35;;;;;;;123.50;39.70;;;;;;;3.22;83.95;98833.52;130427;1259;107384;-74
2023/02/02 08:23:42;;;;;;;292.30;82.40;;;;;;;3.25;84.11;98832.62;130486;1256;107213;-71
2023/02/02 08:26:48;;;;;;;396.20;111.60;;;;;;;3.34;84.25;98839.52;130606;1256;107542;-71
2023/02/02 08:29:53;;;;;;;34.60;11.60;;;;;;;3.43;84.13;98839.80;130665;1256;107556;-71
2023/02/02 08:32:58;;;;;;;377.80;116.10;;;;;;;3.43;84.27;98846.48;130571;1257;107562;-73
2023/02/02 08:36:05;;;;;;;350.90;116.10;;;;;;;3.42;84.38;98850.91;130518;1256;107254;-73
2023/02/02 08:39:13;;;;;;;579.60;258.90;;;;;;;3.39;84.50;98854.73;130566;1255;107512;-73
2023/02/02 08:42:18;;;;;;;35.90;16.50;;;;;;;3.39;84.69;98862.46;130622;1259;107408;-73
2023/02/02 08:45:24;;;;;;;70.30;32.90;;;;;;;3.34;84.81;98869.08;130692;1257;107543;-73
2023/02/02 08:48:30;;;;;;;57.70;25.50;;;;;;;3.30;85.24;98872.06;130708;1258;105757;-73
2023/02/02 08:51:35;;;;;;;9.30;5.20;;;;;;;3.34;85.48;98875.95;130592;1258;108570;-74
2023/02/02 08:54:41;;;;;;;42.10;20.80;;;;;;;3.35;85.51;98882.52;130455;1258;255229;-72
2023/02/02 08:57:46;;;;;;;23.90;8.50;;;;;;;3.30;85.80;98892.77;130673;1259;107475;-72
2023/02/02 09:00:52;;;;;;;3.90;2.40;;;;;;;3.23;86.16;98894.66;130648;1259;107287;-72
2023/02/02 09:04:00;;;;;;;15.30;6.70;;;;;;;3.18;86.53;98902.73;130512;1256;107564;-75
2023/02/02 09:07:06;;;;;;;5.80;3.20;;;;;;;3.16;86.73;98906.40;130667;1259;107384;-74
2023/02/02 09:10:12;;;;;;;5.70;3.20;;;;;;;3.21;86.86;98908.41;130696;1258;105866;-74
2023/02/02 09:13:18;;;;;;;5.20;3.70;;;;;;;3.22;86.91;98919.77;130623;1258;107366;-74
2023/02/02 09:16:24;;;;;;;5.80;3.10;;;;;;;3.18;87.01;98921.06;130604;1254;107528;-74
2023/02/02 09:19:30;;;;;;;4.40;3.00;;;;;;;3.14;87.37;98930.31;130530;1256;107469;-75
2023/02/02 09:22:35;;;;;;;5.70;3.40;;;;;;;3.12;87.11;98935.05;130536;1259;106480;-74
2023/02/02 09:25:41;;;;;;;5.10;3.50;;;;;;;3.11;87.00;98936.17;130514;1254;107543;-74
2023/02/02 09:28:49;;;;;;;6.10;4.30;;;;;;;3.10;87.33;98948.05;130712;1257;107473;-73
2023/02/02 09:31:55;;;;;;;7.20;4.10;;;;;;;3.02;87.70;98952.11;130524;1259;107588;-73
2023/02/02 09:35:00;;;;;;;7.90;4.70;;;;;;;2.97;88.25;98959.41;130593;1258;107987;-73
2023/02/02 09:38:06;;;;;;;54.30;18.60;;;;;;;3.00;88.17;98963.92;130548;1259;107551;-74
2023/02/02 09:41:40;;;;;;;12.40;6.40;;;;;;;3.05;87.96;98970.44;130542;1258;107549;-73
2023/02/02 09:44:58;;;;;;;10.10;5.50;;;;;;;3.03;88.07;98978.58;130540;1261;107346;-73
2023/02/02 09:48:13;;;;;;;8.50;4.80;;;;;;;3.02;88.25;98990.61;130553;1259;107418;-74
2023/02/02 09:51:28;;;;;;;;;;;;;;;3.00;88.02;98999.54;130600;1254;107319;-73
2023/02/02 09:54:40;;;;;;;7.20;4.20;;;;;;;3.00;87.73;99011.50;130581;1254;108315;-73
2023/02/02 09:57:46;;;;;;;;;;;;;;;2.98;87.99;99012.71;130533;1259;107458;-73
2023/02/02 10:00:59;;;;;;;8.00;5.50;;;;;;;2.95;87.90;99017.55;130525;1258;107420;-74
2023/02/02 10:04:12;;;;;;;9.70;5.60;;;;;;;2.92;88.22;99019.19;130525;1257;108398;-74
2023/02/02 10:07:20;;;;;;;11.30;7.90;;;;;;;2.95;88.54;99024.23;130529;1258;107524;-74
2023/02/02 10:10:29;;;;;;;9.60;6.20;;;;;;;2.93;88.57;99031.76;130542;1258;107438;-74
2023/02/02 10:13:38;;;;;;;6.50;4.70;;;;;;;2.97;88.34;99044.64;130619;1258;107528;-72
2023/02/02 10:16:43;;;;;;;9.20;5.90;;;;;;;3.01;88.16;99050.75;130737;1258;107532;-71
2023/02/02 10:19:52;;;;;;;8.30;4.90;;;;;;;3.01;88.35;99051.27;130738;1257;107514;-72
2023/02/02 10:23:06;;;;;;;8.10;4.80;;;;;;;3.02;88.47;99056.11;130545;1254;107560;-72
2023/02/02 10:26:17;;;;;;;11.70;7.50;;;;;;;3.04;88.56;99062.61;130589;1258;107415;-74
2023/02/02 10:29:37;;;;;;;13.80;6.70;;;;;;;3.08;88.68;99067.72;130593;1258;107492;-74
2023/02/02 10:33:03;;;;;;;8.70;5.50;;;;;;;3.04;89.13;99069.27;130637;1259;107521;-73
2023/02/02 10:36:18;;;;;;;7.80;5.00;;;;;;;3.03;88.87;99075.01;130552;1258;107508;-74
2023/02/02 10:39:33;;;;;;;8.30;5.90;;;;;;;3.06;89.04;99082.05;130645;1259;107648;-74
2023/02/02 10:46:13;;;;;;;;;;;;;;;3.15;89.02;99094.13;130576;1258;107550;-74
2023/02/02 10:49:26;;;;;;;7.00;4.20;;;;;;;3.14;89.11;99098.11;130735;1254;107451;-71
2023/02/02 10:52:35;;;;;;;8.00;4.50;;;;;;;3.15;89.70;99105.55;130742;1257;108535;-72
2023/02/02 10:55:46;;;;;;;6.30;4.00;;;;;;;3.21;89.61;99109.66;130710;1258;108150;-73
2023/02/02 10:58:58;;;;;;;6.20;4.30;;;;;;;3.29;89.66;99112.25;130712;1258;107269;-72
2023/02/02 11:02:09;;;;;;;6.10;3.30;;;;;;;3.31;89.67;99117.85;130577;1259;108707;-74
2023/02/02 11:08:46;;;;;;;7.10;4.70;;;;;;;3.22;90.39;99125.59;130550;1258;107404;-73
2023/02/02 11:11:55;;;;;;;7.60;5.00;;;;;;;3.20;90.29;99126.98;130555;1257;108561;-73
2023/02/02 11:15:04;;;;;;;8.80;5.80;;;;;;;3.15;90.84;99136.66;130575;1268;107585;-74
2023/02/02 11:18:27;;;;;;;8.10;5.20;;;;;;;3.15;91.02;99133.66;130713;1257;107593;-74
2023/02/02 11:21:34;;;;;;;7.60;4.30;;;;;;;3.11;91.26;99152.30;130703;1258;107332;-73
2023/02/02 11:24:48;;;;;;;9.10;6.50;;;;;;;3.12;91.46;99147.64;130759;1259;108029;-74
2023/02/02 11:27:54;;;;;;;24.10;11.40;;;;;;;3.08;91.92;99161.39;130523;1259;107458;-72
2023/02/02 11:31:00;;;;;;;51.60;21.00;;;;;;;2.99;92.07;99156.84;130747;1255;107405;-72
2023/02/02 11:34:26;;;;;;;8.30;5.30;;;;;;;2.98;92.16;99163.84;130624;1259;106720;-74
2023/02/02 11:37:34;;;;;;;9.10;5.60;;;;;;;2.97;92.20;99170.02;130487;1257;107725;-73
2023/02/02 11:40:46;;;;;;;21.10;11.80;;;;;;;2.98;91.89;99179.96;130514;1257;106577;-74
2023/02/02 11:43:55;;;;;;;31.30;15.60;;;;;;;2.96;91.72;99180.48;130522;1268;106985;-74
2023/02/02 11:47:07;;;;;;;14.20;7.50;;;;;;;2.92;91.87;99185.37;130450;1256;107340;-74
2023/02/02 11:50:25;;;;;;;14.90;7.00;;;;;;;2.92;92.40;99185.90;130343;1261;109003;-75
2023/02/02 11:53:34;;;;;;;11.00;6.80;;;;;;;2.92;92.24;99192.02;130597;1259;107699;-72
2023/02/02 11:56:41;;;;;;;61.70;27.20;;;;;;;2.92;92.28;99199.77;130559;1259;107453;-74
2023/02/02 11:59:48;;;;;;;12.50;7.90;;;;;;;2.89;92.28;99212.01;130543;1258;107014;-74
2023/02/02 12:02:54;;;;;;;8.80;5.40;;;;;;;2.89;92.22;99215.67;130534;1259;107439;-73
2023/02/02 12:06:01;;;;;;;7.70;4.90;;;;;;;2.93;92.43;99219.89;130579;1258;107585;-74
2023/02/02 12:09:14;;;;;;;6.90;4.60;;;;;;;2.95;91.91;99226.36;130701;1259;107488;-74
2023/02/02 12:12:32;;;;;;;13.10;7.80;;;;;;;2.90;92.21;99232.93;130701;1259;107570;-71
2023/02/02 12:15:51;;;;;;;57.30;28.50;;;;;;;2.87;92.04;99237.95;130742;1258;107384;-71
2023/02/02 12:19:19;;;;;;;56.90;19.80;;;;;;;2.91;92.56;99251.16;130617;1259;107889;-74
2023/02/02 12:22:41;;;;;;;29.70;16.60;;;;;;;2.96;92.93;99268.83;130489;1258;107528;-74
2023/02/02 12:26:01;;;;;;;21.60;11.50;;;;;;;3.05;92.88;99271.61;130532;1258;107583;-72
2023/02/02 12:29:39;;;;;;;34.40;16.60;;;;;;;3.12;93.32;99277.98;130536;1265;108804;-74
2023/02/02 12:33:00;;;;;;;49.80;26.90;;;;;;;3.16;92.88;99287.91;130483;1260;108423;-73
2023/02/02 12:36:23;;;;;;;27.20;12.30;;;;;;;3.20;92.92;99290.39;130524;1259;107453;-74
2023/02/02 12:39:41;;;;;;;19.70;9.90;;;;;;;3.24;92.25;99305.13;130599;1256;109364;-73
2023/02/02 12:43:02;;;;;;;24.70;10.40;;;;;;;3.27;92.15;99311.44;130603;1259;107426;-73
2023/02/02 12:46:21;;;;;;;9.20;6.20;;;;;;;3.29;92.02;99315.45;130580;1261;106254;-74
2023/02/02 12:49:44;;;;;;;22.90;10.80;;;;;;;3.30;92.00;99319.80;130441;1260;107369;-73
2023/02/02 12:53:05;;;;;;;16.70;11.20;;;;;;;3.34;92.03;99328.89;130451;1261;107595;-73
2023/02/02 12:56:26;;;;;;;9.90;6.00;;;;;;;3.38;91.71;99334.94;130507;1259;108677;-72
2023/02/02 12:59:55;;;;;;;12.60;8.40;;;;;;;3.38;91.32;99342.15;130533;1262;106790;-72
2023/02/02 13:03:16;;;;;;;32.90;19.90;;;;;;;3.43;91.12;99345.04;130492;1261;107553;-71
2023/02/02 13:06:57;;;;;;;9.60;6.30;;;;;;;3.50;90.30;99348.09;130468;1260;108842;-74
2023/02/02 13:10:23;;;;;;;39.80;25.50;;;;;;;3.62;89.83;99362.95;130668;1262;107529;-72
2023/02/02 13:13:33;;;;;;;10.10;5.90;;;;;;;3.71;89.36;99376.80;130580;1262;107902;-73
2023/02/02 13:16:47;;;;;;;9.30;6.40;;;;;;;3.72;88.82;99376.84;130475;1260;107470;-73
2023/02/02 13:19:56;;;;;;;7.30;5.10;;;;;;;3.66;87.52;99390.20;130526;1258;107263;-73
2023/02/02 13:23:08;;;;;;;8.30;5.70;;;;;;;3.62;87.43;99388.30;130564;1256;107413;-73
2023/02/02 13:26:19;;;;;;;7.80;4.30;;;;;;;3.54;87.35;99396.83;130531;1260;107494;-73
2023/02/02 13:29:32;;;;;;;5.70;4.00;;;;;;;3.44;86.03;99406.46;130502;1261;108487;-74
2023/02/02 13:32:41;;;;;;;6.30;4.40;;;;;;;3.46;86.87;99407.52;130440;1256;107328;-74
2023/02/02 13:35:54;;;;;;;13.80;8.40;;;;;;;3.45;86.01;99417.81;130503;1256;107393;-74
2023/02/02 13:39:02;;;;;;;66.30;25.60;;;;;;;3.47;86.54;99420.25;130451;1256;107398;-73
2023/02/02 13:42:15;;;;;;;16.60;6.20;;;;;;;3.52;86.45;99428.84;130526;1260;107530;-74
2023/02/02 13:45:41;;;;;;;29.70;14.40;;;;;;;3.52;85.75;99432.89;130587;1268;107465;-73
2023/02/02 13:48:57;;;;;;;22.60;10.70;;;;;;;3.49;85.60;99443.70;130727;1259;107537;-74
2023/02/02 13:52:22;;;;;;;12.20;6.20;;;;;;;3.47;85.49;99452.44;130726;1259;108668;-74
2023/02/02 13:55:49;;;;;;;24.90;13.40;;;;;;;3.49;85.65;99456.52;130751;1257;107526;-74
2023/02/02 13:59:19;;;;;;;77.70;36.10;;;;;;;3.52;85.79;99461.38;130517;1259;107414;-73
2023/02/02 14:02:31;;;;;;;26.30;13.30;;;;;;;3.59;86.11;99466.79;130680;1259;107260;-73
2023/02/02 14:05:37;;;;;;;;;;;;;;;3.64;85.47;99473.41;130755;1258;107647;-73
2023/02/02 14:08:48;;;;;;;19.20;11.40;;;;;;;3.65;85.69;99468.20;130807;1257;107518;-73
2023/02/02 14:11:59;;;;;;;36.10;22.80;;;;;;;3.71;86.08;99475.27;130345;1261;107526;-72
2023/02/02 14:15:12;;;;;;;8.20;5.10;;;;;;;3.72;86.07;99487.48;130410;1268;107484;-72
2023/02/02 14:18:55;;;;;;;23.10;13.90;;;;;;;3.69;85.92;99502.70;130330;1261;108379;-74
2023/02/02 14:22:04;;;;;;;7.10;4.50;;;;;;;3.70;85.92;99525.67;130477;1256;107352;-74
2023/02/02 14:25:56;;;;;;;13.80;8.40;;;;;;;3.67;85.86;99525.41;130575;1258;106735;-74
2023/02/02 14:29:02;;;;;;;22.30;15.10;;;;;;;3.63;85.56;99531.70;130018;1264;107577;-75
2023/02/02 14:32:33;;;;;;;34.10;20.40;;;;;;;3.59;84.94;99531.17;130469;1259;107518;-74
2023/02/02 14:36:04;;;;;;;18.10;10.40;;;;;;;3.53;85.00;99536.20;130503;1259;107385;-74
2023/02/02 14:39:21;;;;;;;8.50;5.60;;;;;;;3.49;84.90;99541.81;130518;1258;107573;-74
2023/02/02 14:46:32;;;;;;;13.30;10.30;;;;;;;3.46;85.44;99552.41;130516;1262;107317;-74
2023/02/02 14:49:38;;;;;;;8.90;5.30;;;;;;;3.46;85.77;99558.73;130482;1256;108593;-75
2023/02/02 14:52:44;;;;;;;111.20;25.10;;;;;;;3.45;85.71;99566.92;130658;1259;106575;-74
2023/02/02 14:55:58;;;;;;;24.00;6.70;;;;;;;3.42;85.92;99581.45;130767;1258;107581;-74